sensor_id;sensor_type;location;lat;lon;timestamp;pressure;altitude;pressure_sealevel;temperature;humidity
46782;BME280;32541;46.298;11.506;2022-11-15T00:01:25;89743.22;;;1.67;100.00
46782;BME280;32541;46.298;11.506;2022-11-15T00:03:51;89736.03;;;1.70;100.00
46782;BME280;32541;46.298;11.506;2022-11-15T00:06:17;89729.47;;;1.65;100.00
46782;BME280;32541;46.298;11.506;2022-11-15T00:08:42;89729.66;;;1.67;100.00
46782;BME280;32541;46.298;11.506;2022-11-15T00:11:10;89731.00;;;1.61;100.00
46782;BME280;32541;46.298;11.506;2022-11-15T00:13:36;89729.97;;;1.64;100.00
46782;BME280;32541;46.298;11.506;2022-11-15T00:16:02;89732.38;;;1.54;100.00
46782;BME280;32541;46.298;11.506;2022-11-15T00:18:28;89731.22;;;1.50;100.00
46782;BME280;32541;46.298;11.506;2022-11-15T00:20:54;89727.66;;;1.55;100.00
46782;BME280;32541;46.298;11.506;2022-11-15T00:23:19;89716.22;;;1.62;100.00
46782;BME280;32541;46.298;11.506;2022-11-15T00:25:44;89714.13;;;1.68;100.00
46782;BME280;32541;46.298;11.506;2022-11-15T00:28:10;89716.44;;;1.77;100.00
46782;BME280;32541;46.298;11.506;2022-11-15T00:30:35;89713.59;;;1.69;100.00
46782;BME280;32541;46.298;11.506;2022-11-15T00:33:02;89714.75;;;1.61;100.00
46782;BME280;32541;46.298;11.506;2022-11-15T00:35:31;89711.63;;;1.57;100.00
46782;BME280;32541;46.298;11.506;2022-11-15T00:37:56;89717.16;;;1.64;100.00
46782;BME280;32541;46.298;11.506;2022-11-15T00:40:22;89722.56;;;1.51;100.00
46782;BME280;32541;46.298;11.506;2022-11-15T00:42:47;89717.66;;;1.50;100.00
46782;BME280;32541;46.298;11.506;2022-11-15T00:45:12;89715.59;;;1.56;100.00
46782;BME280;32541;46.298;11.506;2022-11-15T00:47:38;89714.34;;;1.57;100.00
46782;BME280;32541;46.298;11.506;2022-11-15T00:50:04;89708.59;;;1.60;100.00
46782;BME280;32541;46.298;11.506;2022-11-15T00:52:29;89713.94;;;1.66;100.00
46782;BME280;32541;46.298;11.506;2022-11-15T00:54:55;89702.47;;;1.60;100.00
46782;BME280;32541;46.298;11.506;2022-11-15T00:57:20;89703.69;;;1.46;100.00
46782;BME280;32541;46.298;11.506;2022-11-15T00:59:45;89707.66;;;1.45;100.00
46782;BME280;32541;46.298;11.506;2022-11-15T01:02:11;89700.13;;;1.38;100.00
46782;BME280;32541;46.298;11.506;2022-11-15T01:04:36;89693.28;;;1.50;100.00
46782;BME280;32541;46.298;11.506;2022-11-15T01:07:02;89688.06;;;1.52;100.00
46782;BME280;32541;46.298;11.506;2022-11-15T01:09:27;89696.78;;;1.32;100.00
46782;BME280;32541;46.298;11.506;2022-11-15T01:11:53;89689.78;;;1.23;100.00
46782;BME280;32541;46.298;11.506;2022-11-15T01:14:18;89687.81;;;1.24;100.00
46782;BME280;32541;46.298;11.506;2022-11-15T01:16:43;89685.31;;;1.13;100.00
46782;BME280;32541;46.298;11.506;2022-11-15T01:19:09;89679.47;;;1.08;100.00
46782;BME280;32541;46.298;11.506;2022-11-15T01:21:34;89680.94;;;1.23;100.00
46782;BME280;32541;46.298;11.506;2022-11-15T01:23:59;89682.50;;;1.31;100.00
46782;BME280;32541;46.298;11.506;2022-11-15T01:26:25;89679.28;;;1.33;100.00
46782;BME280;32541;46.298;11.506;2022-11-15T01:28:50;89680.53;;;1.19;100.00
46782;BME280;32541;46.298;11.506;2022-11-15T01:31:18;89670.09;;;1.23;100.00
46782;BME280;32541;46.298;11.506;2022-11-15T01:33:44;89666.34;;;1.26;100.00
46782;BME280;32541;46.298;11.506;2022-11-15T01:36:13;89661.25;;;1.22;100.00
46782;BME280;32541;46.298;11.506;2022-11-15T01:38:38;89659.66;;;1.13;100.00
46782;BME280;32541;46.298;11.506;2022-11-15T01:41:04;89654.66;;;1.04;100.00
46782;BME280;32541;46.298;11.506;2022-11-15T01:43:35;89664.88;;;1.11;100.00
46782;BME280;32541;46.298;11.506;2022-11-15T01:46:24;89657.25;;;1.10;100.00
46782;BME280;32541;46.298;11.506;2022-11-15T01:48:51;89655.53;;;1.13;100.00
46782;BME280;32541;46.298;11.506;2022-11-15T01:51:19;89663.53;;;1.18;100.00
46782;BME280;32541;46.298;11.506;2022-11-15T01:53:48;89653.31;;;1.11;100.00
46782;BME280;32541;46.298;11.506;2022-11-15T01:56:19;89658.44;;;1.15;100.00
46782;BME280;32541;46.298;11.506;2022-11-15T01:58:47;89652.38;;;1.08;100.00
46782;BME280;32541;46.298;11.506;2022-11-15T02:01:13;89655.69;;;1.01;100.00
46782;BME280;32541;46.298;11.506;2022-11-15T02:04:02;89650.28;;;1.01;100.00
46782;BME280;32541;46.298;11.506;2022-11-15T02:06:29;89652.47;;;1.03;100.00
46782;BME280;32541;46.298;11.506;2022-11-15T02:08:56;89650.28;;;1.01;100.00
46782;BME280;32541;46.298;11.506;2022-11-15T02:11:22;89656.94;;;1.00;100.00
46782;BME280;32541;46.298;11.506;2022-11-15T02:13:48;89647.66;;;0.96;100.00
46782;BME280;32541;46.298;11.506;2022-11-15T02:21:45;89649.66;;;1.08;100.00
46782;BME280;32541;46.298;11.506;2022-11-15T02:32:22;89632.03;;;0.89;100.00
46782;BME280;32541;46.298;11.506;2022-11-15T02:38:17;89628.91;;;0.85;100.00
46782;BME280;32541;46.298;11.506;2022-11-15T02:41:11;89628.59;;;0.88;100.00
46782;BME280;32541;46.298;11.506;2022-11-15T02:49:13;89625.66;;;0.86;100.00
46782;BME280;32541;46.298;11.506;2022-11-15T02:51:40;89617.03;;;0.88;100.00
46782;BME280;32541;46.298;11.506;2022-11-15T02:54:12;89613.81;;;0.89;100.00
46782;BME280;32541;46.298;11.506;2022-11-15T02:56:40;89614.28;;;0.75;100.00
46782;BME280;32541;46.298;11.506;2022-11-15T03:05:34;89598.41;;;0.84;100.00
46782;BME280;32541;46.298;11.506;2022-11-15T03:11:24;89600.06;;;0.74;100.00
46782;BME280;32541;46.298;11.506;2022-11-15T03:13:58;89595.06;;;0.78;100.00
46782;BME280;32541;46.298;11.506;2022-11-15T03:21:57;89597.75;;;0.78;100.00
46782;BME280;32541;46.298;11.506;2022-11-15T03:24:25;89591.81;;;0.67;100.00
46782;BME280;32541;46.298;11.506;2022-11-15T03:26:53;89599.19;;;0.66;100.00
46782;BME280;32541;46.298;11.506;2022-11-15T03:29:24;89601.97;;;0.61;100.00
46782;BME280;32541;46.298;11.506;2022-11-15T03:31:56;89585.84;;;0.55;100.00
46782;BME280;32541;46.298;11.506;2022-11-15T03:37:14;89596.28;;;0.64;100.00
46782;BME280;32541;46.298;11.506;2022-11-15T03:39:41;89587.94;;;0.62;100.00
46782;BME280;32541;46.298;11.506;2022-11-15T03:42:25;89588.66;;;0.63;100.00
46782;BME280;32541;46.298;11.506;2022-11-15T03:48:01;89595.63;;;0.58;100.00
46782;BME280;32541;46.298;11.506;2022-11-15T03:50:30;89595.84;;;0.60;100.00
46782;BME280;32541;46.298;11.506;2022-11-15T03:52:57;89596.91;;;0.70;100.00
46782;BME280;32541;46.298;11.506;2022-11-15T03:55:23;89607.53;;;0.68;100.00
46782;BME280;32541;46.298;11.506;2022-11-15T03:57:51;89606.88;;;0.62;100.00
46782;BME280;32541;46.298;11.506;2022-11-15T04:00:18;89596.88;;;0.57;100.00
46782;BME280;32541;46.298;11.506;2022-11-15T04:02:44;89601.69;;;0.64;100.00
46782;BME280;32541;46.298;11.506;2022-11-15T04:05:09;89596.88;;;0.57;100.00
46782;BME280;32541;46.298;11.506;2022-11-15T04:07:35;89593.75;;;0.53;100.00
46782;BME280;32541;46.298;11.506;2022-11-15T04:10:00;89589.22;;;0.74;100.00
46782;BME280;32541;46.298;11.506;2022-11-15T04:12:40;89585.06;;;0.73;100.00
46782;BME280;32541;46.298;11.506;2022-11-15T04:15:13;89589.00;;;0.59;100.00
46782;BME280;32541;46.298;11.506;2022-11-15T04:17:42;89584.38;;;0.54;100.00
46782;BME280;32541;46.298;11.506;2022-11-15T04:23:01;89580.53;;;0.49;100.00
46782;BME280;32541;46.298;11.506;2022-11-15T04:25:48;89582.69;;;0.51;100.00
46782;BME280;32541;46.298;11.506;2022-11-15T04:28:14;89576.06;;;0.52;100.00
46782;BME280;32541;46.298;11.506;2022-11-15T04:30:40;89564.69;;;0.53;100.00
46782;BME280;32541;46.298;11.506;2022-11-15T04:33:05;89558.75;;;0.42;100.00
46782;BME280;32541;46.298;11.506;2022-11-15T04:35:31;89547.94;;;0.42;100.00
46782;BME280;32541;46.298;11.506;2022-11-15T04:37:57;89543.34;;;0.37;100.00
46782;BME280;32541;46.298;11.506;2022-11-15T04:40:23;89540.25;;;0.46;100.00
46782;BME280;32541;46.298;11.506;2022-11-15T04:42:48;89541.59;;;0.39;100.00
46782;BME280;32541;46.298;11.506;2022-11-15T04:45:14;89539.88;;;0.23;100.00
46782;BME280;32541;46.298;11.506;2022-11-15T04:47:40;89547.34;;;0.17;100.00
46782;BME280;32541;46.298;11.506;2022-11-15T04:50:08;89558.47;;;0.14;100.00
46782;BME280;32541;46.298;11.506;2022-11-15T04:52:33;89559.09;;;0.20;100.00
46782;BME280;32541;46.298;11.506;2022-11-15T04:54:58;89561.03;;;0.06;100.00
46782;BME280;32541;46.298;11.506;2022-11-15T04:57:24;89571.78;;;0.12;100.00
46782;BME280;32541;46.298;11.506;2022-11-15T04:59:49;89576.84;;;0.15;100.00
46782;BME280;32541;46.298;11.506;2022-11-15T05:02:15;89591.56;;;0.20;100.00
46782;BME280;32541;46.298;11.506;2022-11-15T05:04:40;89591.13;;;0.16;100.00
46782;BME280;32541;46.298;11.506;2022-11-15T05:07:05;89600.91;;;0.19;100.00
46782;BME280;32541;46.298;11.506;2022-11-15T05:09:31;89608.22;;;0.24;100.00
46782;BME280;32541;46.298;11.506;2022-11-15T05:11:56;89613.03;;;0.12;100.00
46782;BME280;32541;46.298;11.506;2022-11-15T05:14:22;89603.09;;;0.20;100.00
46782;BME280;32541;46.298;11.506;2022-11-15T05:16:47;89612.00;;;0.15;100.00
46782;BME280;32541;46.298;11.506;2022-11-15T05:19:13;89607.34;;;0.16;100.00
46782;BME280;32541;46.298;11.506;2022-11-15T05:21:38;89593.81;;;0.16;100.00
46782;BME280;32541;46.298;11.506;2022-11-15T05:24:04;89595.06;;;0.15;100.00
46782;BME280;32541;46.298;11.506;2022-11-15T05:26:30;89578.22;;;0.09;100.00
46782;BME280;32541;46.298;11.506;2022-11-15T05:28:59;89567.22;;;0.20;100.00
46782;BME280;32541;46.298;11.506;2022-11-15T05:31:25;89568.06;;;0.28;100.00
46782;BME280;32541;46.298;11.506;2022-11-15T05:33:51;89556.03;;;0.29;100.00
46782;BME280;32541;46.298;11.506;2022-11-15T05:36:25;89554.94;;;0.19;100.00
46782;BME280;32541;46.298;11.506;2022-11-15T05:38:53;89554.44;;;0.20;100.00
46782;BME280;32541;46.298;11.506;2022-11-15T05:41:21;89563.13;;;0.13;100.00
46782;BME280;32541;46.298;11.506;2022-11-15T05:43:50;89565.94;;;0.08;100.00
46782;BME280;32541;46.298;11.506;2022-11-15T05:46:17;89559.06;;;0.07;100.00
46782;BME280;32541;46.298;11.506;2022-11-15T05:48:45;89556.88;;;0.05;100.00
46782;BME280;32541;46.298;11.506;2022-11-15T05:51:14;89557.72;;;0.13;100.00
46782;BME280;32541;46.298;11.506;2022-11-15T05:53:40;89550.56;;;0.16;100.00
46782;BME280;32541;46.298;11.506;2022-11-15T05:56:08;89547.69;;;0.27;100.00
46782;BME280;32541;46.298;11.506;2022-11-15T05:58:34;89547.69;;;0.27;100.00
46782;BME280;32541;46.298;11.506;2022-11-15T06:01:00;89536.00;;;0.19;100.00
46782;BME280;32541;46.298;11.506;2022-11-15T06:03:25;89538.22;;;0.20;100.00
46782;BME280;32541;46.298;11.506;2022-11-15T06:05:51;89528.72;;;0.14;100.00
46782;BME280;32541;46.298;11.506;2022-11-15T06:08:16;89540.91;;;0.20;100.00
46782;BME280;32541;46.298;11.506;2022-11-15T06:10:42;89541.41;;;0.19;100.00
46782;BME280;32541;46.298;11.506;2022-11-15T06:13:07;89538.38;;;0.09;100.00
46782;BME280;32541;46.298;11.506;2022-11-15T06:15:32;89538.44;;;0.04;100.00
46782;BME280;32541;46.298;11.506;2022-11-15T06:17:59;89534.59;;;-0.01;100.00
46782;BME280;32541;46.298;11.506;2022-11-15T06:20:26;89534.00;;;0.06;100.00
46782;BME280;32541;46.298;11.506;2022-11-15T06:22:57;89534.50;;;0.05;100.00
46782;BME280;32541;46.298;11.506;2022-11-15T06:25:22;89541.72;;;0.15;100.00
46782;BME280;32541;46.298;11.506;2022-11-15T06:27:52;89542.16;;;0.19;100.00
46782;BME280;32541;46.298;11.506;2022-11-15T06:30:17;89543.63;;;0.20;100.00
46782;BME280;32541;46.298;11.506;2022-11-15T06:32:43;89544.22;;;0.13;100.00
46782;BME280;32541;46.298;11.506;2022-11-15T06:35:08;89542.03;;;0.12;100.00
46782;BME280;32541;46.298;11.506;2022-11-15T06:37:33;89545.50;;;0.25;100.00
46782;BME280;32541;46.298;11.506;2022-11-15T06:39:59;89541.69;;;0.34;100.00
46782;BME280;32541;46.298;11.506;2022-11-15T06:42:24;89539.78;;;0.29;100.00
46782;BME280;32541;46.298;11.506;2022-11-15T06:44:49;89548.50;;;0.22;100.00
46782;BME280;32541;46.298;11.506;2022-11-15T06:47:15;89547.22;;;0.10;100.00
46782;BME280;32541;46.298;11.506;2022-11-15T06:49:40;89544.94;;;0.14;100.00
46782;BME280;32541;46.298;11.506;2022-11-15T06:52:05;89542.44;;;0.16;100.00
46782;BME280;32541;46.298;11.506;2022-11-15T06:54:31;89540.69;;;0.18;100.00
46782;BME280;32541;46.298;11.506;2022-11-15T06:56:56;89543.75;;;0.28;100.00
46782;BME280;32541;46.298;11.506;2022-11-15T06:59:22;89549.16;;;0.28;100.00
46782;BME280;32541;46.298;11.506;2022-11-15T07:01:47;89555.88;;;0.21;100.00
46782;BME280;32541;46.298;11.506;2022-11-15T07:04:14;89551.19;;;0.22;100.00
46782;BME280;32541;46.298;11.506;2022-11-15T07:06:39;89551.84;;;0.28;100.00
46782;BME280;32541;46.298;11.506;2022-11-15T07:09:04;89560.16;;;0.30;100.00
46782;BME280;32541;46.298;11.506;2022-11-15T07:11:30;89566.41;;;0.25;100.00
46782;BME280;32541;46.298;11.506;2022-11-15T07:13:55;89567.47;;;0.35;100.00
46782;BME280;32541;46.298;11.506;2022-11-15T07:16:21;89572.63;;;0.51;100.00
46782;BME280;32541;46.298;11.506;2022-11-15T07:18:46;89567.50;;;1.19;100.00
46782;BME280;32541;46.298;11.506;2022-11-15T07:21:11;89562.78;;;2.81;100.00
46782;BME280;32541;46.298;11.506;2022-11-15T07:23:38;89572.63;;;5.31;93.28
46782;BME280;32541;46.298;11.506;2022-11-15T07:26:04;89573.88;;;7.03;80.41
46782;BME280;32541;46.298;11.506;2022-11-15T07:28:29;89580.72;;;8.54;76.17
46782;BME280;32541;46.298;11.506;2022-11-15T07:30:55;89569.47;;;9.86;67.72
46782;BME280;32541;46.298;11.506;2022-11-15T07:33:20;89575.16;;;11.22;61.10
46782;BME280;32541;46.298;11.506;2022-11-15T07:35:46;89566.50;;;12.39;58.81
46782;BME280;32541;46.298;11.506;2022-11-15T07:38:14;89568.63;;;13.72;55.31
46782;BME280;32541;46.298;11.506;2022-11-15T07:40:45;89564.75;;;14.70;50.51
46782;BME280;32541;46.298;11.506;2022-11-15T07:43:11;89558.06;;;15.23;48.58
46782;BME280;32541;46.298;11.506;2022-11-15T07:45:41;89548.97;;;15.09;46.77
46782;BME280;32541;46.298;11.506;2022-11-15T07:48:07;89545.19;;;15.16;46.70
46782;BME280;32541;46.298;11.506;2022-11-15T07:50:32;89531.91;;;15.51;46.48
46782;BME280;32541;46.298;11.506;2022-11-15T07:52:59;89530.69;;;15.54;46.03
46782;BME280;32541;46.298;11.506;2022-11-15T07:55:26;89530.03;;;15.81;44.95
46782;BME280;32541;46.298;11.506;2022-11-15T07:57:53;89532.63;;;16.04;42.52
46782;BME280;32541;46.298;11.506;2022-11-15T08:00:24;89535.78;;;15.85;44.49
46782;BME280;32541;46.298;11.506;2022-11-15T08:02:50;89534.09;;;15.41;44.05
46782;BME280;32541;46.298;11.506;2022-11-15T08:05:15;89533.72;;;15.22;45.44
46782;BME280;32541;46.298;11.506;2022-11-15T08:07:41;89529.22;;;15.03;44.64
46782;BME280;32541;46.298;11.506;2022-11-15T08:10:07;89532.09;;;14.20;46.03
46782;BME280;32541;46.298;11.506;2022-11-15T08:12:33;89529.97;;;13.95;46.55
46782;BME280;32541;46.298;11.506;2022-11-15T08:14:59;89530.53;;;13.35;47.85
46782;BME280;32541;46.298;11.506;2022-11-15T08:17:24;89542.72;;;11.61;50.66
46782;BME280;32541;46.298;11.506;2022-11-15T08:19:50;89539.34;;;10.15;54.44
46782;BME280;32541;46.298;11.506;2022-11-15T08:22:15;89538.97;;;9.72;55.90
46782;BME280;32541;46.298;11.506;2022-11-15T08:24:41;89543.28;;;9.20;57.73
46782;BME280;32541;46.298;11.506;2022-11-15T08:27:06;89541.44;;;9.32;57.05
46782;BME280;32541;46.298;11.506;2022-11-15T08:29:43;89531.75;;;9.86;56.99
46782;BME280;32541;46.298;11.506;2022-11-15T08:32:09;89535.56;;;10.48;57.23
46782;BME280;32541;46.298;11.506;2022-11-15T08:34:34;89530.59;;;10.95;56.12
46782;BME280;32541;46.298;11.506;2022-11-15T08:36:59;89526.66;;;11.48;55.13
46782;BME280;32541;46.298;11.506;2022-11-15T08:39:25;89527.28;;;11.77;53.94
46782;BME280;32541;46.298;11.506;2022-11-15T08:41:50;89518.53;;;12.11;54.00
46782;BME280;32541;46.298;11.506;2022-11-15T08:44:15;89512.03;;;12.28;53.30
46782;BME280;32541;46.298;11.506;2022-11-15T08:46:41;89509.38;;;12.51;53.17
46782;BME280;32541;46.298;11.506;2022-11-15T08:49:06;89504.94;;;12.79;52.73
46782;BME280;32541;46.298;11.506;2022-11-15T08:51:32;89497.09;;;12.75;50.29
46782;BME280;32541;46.298;11.506;2022-11-15T08:53:57;89506.94;;;10.03;57.03
46782;BME280;32541;46.298;11.506;2022-11-15T08:56:23;89497.88;;;8.12;64.08
46782;BME280;32541;46.298;11.506;2022-11-15T08:58:48;89500.44;;;6.99;68.40
46782;BME280;32541;46.298;11.506;2022-11-15T09:01:19;89502.72;;;6.29;70.67
46782;BME280;32541;46.298;11.506;2022-11-15T09:03:44;89505.00;;;6.72;69.80
46782;BME280;32541;46.298;11.506;2022-11-15T09:06:10;89499.75;;;6.02;71.83
46782;BME280;32541;46.298;11.506;2022-11-15T09:08:36;89489.25;;;6.88;69.86
46782;BME280;32541;46.298;11.506;2022-11-15T09:11:07;89492.00;;;7.30;70.11
46782;BME280;32541;46.298;11.506;2022-11-15T09:13:33;89482.44;;;7.72;68.45
46782;BME280;32541;46.298;11.506;2022-11-15T09:16:00;89475.53;;;8.50;65.29
46782;BME280;32541;46.298;11.506;2022-11-15T09:18:26;89476.16;;;8.84;63.18
46782;BME280;32541;46.298;11.506;2022-11-15T09:20:55;89474.69;;;8.13;65.80
46782;BME280;32541;46.298;11.506;2022-11-15T09:23:21;89479.06;;;7.81;66.26
46782;BME280;32541;46.298;11.506;2022-11-15T09:25:47;89485.31;;;7.23;67.87
46782;BME280;32541;46.298;11.506;2022-11-15T09:28:12;89492.25;;;6.99;70.15
46782;BME280;32541;46.298;11.506;2022-11-15T09:30:38;89488.34;;;5.88;74.19
46782;BME280;32541;46.298;11.506;2022-11-15T09:33:11;89484.13;;;5.95;74.03
46782;BME280;32541;46.298;11.506;2022-11-15T09:35:37;89486.72;;;5.85;75.27
46782;BME280;32541;46.298;11.506;2022-11-15T09:38:03;89489.00;;;6.36;74.53
46782;BME280;32541;46.298;11.506;2022-11-15T09:40:31;89489.47;;;5.70;74.95
46782;BME280;32541;46.298;11.506;2022-11-15T09:43:25;89490.66;;;5.29;76.86
46782;BME280;32541;46.298;11.506;2022-11-15T09:48:50;89484.00;;;5.70;78.05
46782;BME280;32541;46.298;11.506;2022-11-15T09:51:26;89483.31;;;5.70;76.69
46782;BME280;32541;46.298;11.506;2022-11-15T09:53:57;89492.78;;;5.53;75.91
46782;BME280;32541;46.298;11.506;2022-11-15T09:56:29;89479.56;;;5.97;75.41
46782;BME280;32541;46.298;11.506;2022-11-15T09:59:27;89481.25;;;6.25;73.97
46782;BME280;32541;46.298;11.506;2022-11-15T10:04:29;89459.22;;;6.55;72.98
46782;BME280;32541;46.298;11.506;2022-11-15T10:09:44;89455.16;;;7.48;70.97
46782;BME280;32541;46.298;11.506;2022-11-15T10:12:12;89451.06;;;7.73;70.61
46782;BME280;32541;46.298;11.506;2022-11-15T10:14:39;89437.03;;;8.04;68.94
46782;BME280;32541;46.298;11.506;2022-11-15T10:23:01;89422.38;;;8.35;68.28
46782;BME280;32541;46.298;11.506;2022-11-15T10:25:31;89416.34;;;8.20;67.27
46782;BME280;32541;46.298;11.506;2022-11-15T10:30:49;89419.03;;;7.66;68.28
46782;BME280;32541;46.298;11.506;2022-11-15T10:33:31;89417.69;;;8.02;69.11
46782;BME280;32541;46.298;11.506;2022-11-15T10:38:33;89408.88;;;8.20;67.49
46782;BME280;32541;46.298;11.506;2022-11-15T10:41:06;89395.69;;;8.63;65.83
46782;BME280;32541;46.298;11.506;2022-11-15T10:43:32;89406.97;;;9.22;64.89
46782;BME280;32541;46.298;11.506;2022-11-15T10:46:20;89396.09;;;8.96;65.55
46782;BME280;32541;46.298;11.506;2022-11-15T10:48:46;89389.66;;;8.37;67.37
46782;BME280;32541;46.298;11.506;2022-11-15T10:51:24;89379.56;;;8.76;65.55
46782;BME280;32541;46.298;11.506;2022-11-15T10:53:54;89387.06;;;8.66;66.80
46782;BME280;32541;46.298;11.506;2022-11-15T10:56:22;89380.25;;;8.04;67.84
46782;BME280;32541;46.298;11.506;2022-11-15T10:58:57;89366.63;;;8.23;67.03
46782;BME280;32541;46.298;11.506;2022-11-15T11:01:25;89369.97;;;8.49;67.02
46782;BME280;32541;46.298;11.506;2022-11-15T11:04:04;89363.75;;;8.21;66.74
46782;BME280;32541;46.298;11.506;2022-11-15T11:06:29;89359.28;;;8.26;65.77
46782;BME280;32541;46.298;11.506;2022-11-15T11:09:05;89357.88;;;8.52;65.66
46782;BME280;32541;46.298;11.506;2022-11-15T11:11:51;89354.75;;;8.38;66.51
46782;BME280;32541;46.298;11.506;2022-11-15T11:14:23;89351.19;;;8.45;65.59
46782;BME280;32541;46.298;11.506;2022-11-15T11:17:02;89349.72;;;8.80;65.42
46782;BME280;32541;46.298;11.506;2022-11-15T11:19:37;89344.50;;;8.75;64.54
46782;BME280;32541;46.298;11.506;2022-11-15T11:27:38;89337.22;;;8.97;61.84
46782;BME280;32541;46.298;11.506;2022-11-15T11:35:29;89321.53;;;8.61;60.70
46782;BME280;32541;46.298;11.506;2022-11-15T11:44:11;89321.88;;;7.75;66.78
46782;BME280;32541;46.298;11.506;2022-11-15T11:46:56;89319.69;;;8.00;64.46
46782;BME280;32541;46.298;11.506;2022-11-15T11:57:46;89303.66;;;8.60;61.19
46782;BME280;32541;46.298;11.506;2022-11-15T12:00:18;89307.09;;;8.51;64.18
46782;BME280;32541;46.298;11.506;2022-11-15T12:03:16;89301.53;;;8.31;68.04
46782;BME280;32541;46.298;11.506;2022-11-15T12:05:52;89300.25;;;8.06;67.33
46782;BME280;32541;46.298;11.506;2022-11-15T12:10:59;89295.13;;;7.56;71.86
46782;BME280;32541;46.298;11.506;2022-11-15T12:13:26;89293.72;;;7.65;72.98
46782;BME280;32541;46.298;11.506;2022-11-15T12:16:23;89289.94;;;7.60;74.32
46782;BME280;32541;46.298;11.506;2022-11-15T12:18:54;89289.75;;;7.32;75.57
46782;BME280;32541;46.298;11.506;2022-11-15T12:23:58;89294.69;;;7.33;77.48
46782;BME280;32541;46.298;11.506;2022-11-15T12:26:30;89287.13;;;7.24;79.85
46782;BME280;32541;46.298;11.506;2022-11-15T12:29:04;89288.91;;;7.12;79.59
46782;BME280;32541;46.298;11.506;2022-11-15T12:34:02;89281.44;;;6.95;80.93
46782;BME280;32541;46.298;11.506;2022-11-15T12:36:40;89283.13;;;6.74;82.16
46782;BME280;32541;46.298;11.506;2022-11-15T12:39:09;89280.06;;;6.69;82.47
46782;BME280;32541;46.298;11.506;2022-11-15T12:41:39;89281.84;;;6.57;83.61
46782;BME280;32541;46.298;11.506;2022-11-15T12:44:11;89277.41;;;6.45;84.11
46782;BME280;32541;46.298;11.506;2022-11-15T13:02:19;89264.97;;;7.03;81.65
46782;BME280;32541;46.298;11.506;2022-11-15T13:04:46;89260.69;;;7.09;80.42
46782;BME280;32541;46.298;11.506;2022-11-15T13:13:00;89261.16;;;6.30;83.48
46782;BME280;32541;46.298;11.506;2022-11-15T13:15:39;89256.75;;;6.34;82.58
46782;BME280;32541;46.298;11.506;2022-11-15T13:18:27;89252.16;;;6.37;82.67
46782;BME280;32541;46.298;11.506;2022-11-15T13:20:53;89252.81;;;6.28;81.65
46782;BME280;32541;46.298;11.506;2022-11-15T13:23:21;89255.44;;;6.18;82.99
46782;BME280;32541;46.298;11.506;2022-11-15T13:31:14;89245.84;;;6.68;82.19
46782;BME280;32541;46.298;11.506;2022-11-15T13:33:42;89228.81;;;6.60;82.42
46782;BME280;32541;46.298;11.506;2022-11-15T13:38:40;89222.28;;;6.39;83.92
46782;BME280;32541;46.298;11.506;2022-11-15T13:41:24;89229.13;;;6.30;85.91
46782;BME280;32541;46.298;11.506;2022-11-15T13:43:52;89223.78;;;6.15;88.46
46782;BME280;32541;46.298;11.506;2022-11-15T13:46:19;89217.94;;;6.36;88.36
46782;BME280;32541;46.298;11.506;2022-11-15T13:48:48;89222.84;;;6.20;89.93
46782;BME280;32541;46.298;11.506;2022-11-15T13:56:37;89218.97;;;6.06;90.28
46782;BME280;32541;46.298;11.506;2022-11-15T13:59:15;89216.97;;;6.24;89.37
46782;BME280;32541;46.298;11.506;2022-11-15T14:01:42;89218.38;;;6.32;88.18
46782;BME280;32541;46.298;11.506;2022-11-15T14:04:13;89216.44;;;6.42;87.19
46782;BME280;32541;46.298;11.506;2022-11-15T14:06:49;89212.72;;;6.47;86.75
46782;BME280;32541;46.298;11.506;2022-11-15T14:11:55;89208.50;;;5.95;91.05
46782;BME280;32541;46.298;11.506;2022-11-15T14:14:25;89209.19;;;5.53;92.30
46782;BME280;32541;46.298;11.506;2022-11-15T14:17:02;89219.22;;;5.43;93.23
46782;BME280;32541;46.298;11.506;2022-11-15T14:24:36;89200.03;;;5.58;91.73
46782;BME280;32541;46.298;11.506;2022-11-15T14:27:20;89205.38;;;5.74;90.46
46782;BME280;32541;46.298;11.506;2022-11-15T14:29:47;89195.53;;;5.78;90.24
46782;BME280;32541;46.298;11.506;2022-11-15T14:32:24;89191.84;;;5.83;90.46
46782;BME280;32541;46.298;11.506;2022-11-15T14:35:01;89189.56;;;5.97;89.80
46782;BME280;32541;46.298;11.506;2022-11-15T14:37:32;89189.03;;;5.98;89.97
46782;BME280;32541;46.298;11.506;2022-11-15T14:40:05;89191.50;;;6.04;89.13
46782;BME280;32541;46.298;11.506;2022-11-15T14:42:31;89182.84;;;6.15;88.75
46782;BME280;32541;46.298;11.506;2022-11-15T14:44:56;89177.88;;;6.21;88.27
46782;BME280;32541;46.298;11.506;2022-11-15T14:47:22;89181.56;;;6.33;87.34
46782;BME280;32541;46.298;11.506;2022-11-15T14:49:47;89178.53;;;6.29;87.31
46782;BME280;32541;46.298;11.506;2022-11-15T14:52:29;89181.56;;;6.33;86.88
46782;BME280;32541;46.298;11.506;2022-11-15T14:54:56;89178.69;;;6.48;86.70
46782;BME280;32541;46.298;11.506;2022-11-15T14:57:23;89180.84;;;6.33;87.18
46782;BME280;32541;46.298;11.506;2022-11-15T14:59:48;89172.59;;;6.40;87.69
46782;BME280;32541;46.298;11.506;2022-11-15T15:02:32;89165.38;;;6.35;88.36
46782;BME280;32541;46.298;11.506;2022-11-15T15:04:57;89172.84;;;6.35;89.51
46782;BME280;32541;46.298;11.506;2022-11-15T15:07:26;89155.22;;;6.45;88.80
46782;BME280;32541;46.298;11.506;2022-11-15T15:09:51;89158.78;;;6.38;88.90
46782;BME280;32541;46.298;11.506;2022-11-15T15:12:21;89156.44;;;6.35;89.28
46782;BME280;32541;46.298;11.506;2022-11-15T15:14:48;89154.28;;;6.33;89.12
46782;BME280;32541;46.298;11.506;2022-11-15T15:17:14;89153.53;;;6.33;89.51
46782;BME280;32541;46.298;11.506;2022-11-15T15:19:40;89153.53;;;6.33;89.71
46782;BME280;32541;46.298;11.506;2022-11-15T15:22:08;89143.19;;;6.14;90.86
46782;BME280;32541;46.298;11.506;2022-11-15T15:24:34;89151.84;;;5.86;92.87